TimeCDT,TemperatureF,Dew PointF,Humidity,Sea Level PressureIn,VisibilityMPH,Wind Direction,Wind SpeedMPH,Gust SpeedMPH,PrecipitationIn,Events,Conditions,WindDirDegrees,DateUTC
12:53 AM,71.1,63.0,75,30.09,10.0,South,10.4,-,N/A,,Clear,180,2011-10-25 05:53:00
1:53 AM,70.0,64.0,81,30.09,10.0,South,6.9,-,N/A,,Clear,170,2011-10-25 06:53:00
2:53 AM,68.0,63.0,84,30.08,10.0,South,5.8,-,N/A,,Clear,170,2011-10-25 07:53:00
3:53 AM,68.0,64.0,87,30.07,10.0,South,4.6,-,N/A,,Partly Cloudy,180,2011-10-25 08:53:00
4:53 AM,66.9,64.0,90,30.07,10.0,South,3.5,-,N/A,,Partly Cloudy,180,2011-10-25 09:53:00
5:53 AM,66.9,64.0,90,30.08,10.0,Calm,Calm,-,N/A,,Clear,0,2011-10-25 10:53:00
6:53 AM,62.6,62.6,100,30.12,8.0,Calm,Calm,-,N/A,Fog,Patches of Fog,0,2011-10-25 11:53:00
7:00 AM,62.6,60.8,94,30.13,7.0,East,3.5,-,N/A,Fog,Patches of Fog,80,2011-10-25 12:00:00
7:53 AM,64.9,63.0,93,30.08,4.0,Calm,Calm,-,N/A,Fog,Patches of Fog,0,2011-10-25 12:53:00
8:26 AM,66.2,64.4,94,30.13,5.0,Calm,Calm,-,N/A,Fog,Patches of Fog,0,2011-10-25 13:26:00
8:53 AM,68.0,64.9,90,30.09,6.0,South,5.8,-,N/A,Fog,Patches of Fog,190,2011-10-25 13:53:00
9:08 AM,69.8,64.4,83,30.14,8.0,South,5.8,-,N/A,,Mostly Cloudy,190,2011-10-25 14:08:00
9:53 AM,72.0,64.0,76,30.10,8.0,South,11.5,-,N/A,,Mostly Cloudy,190,2011-10-25 14:53:00
10:53 AM,75.0,64.0,69,30.10,10.0,SSW,16.1,20.7,N/A,,Scattered Clouds,200,2011-10-25 15:53:00
11:53 AM,78.1,63.0,60,30.09,10.0,SSW,12.7,21.9,N/A,,Partly Cloudy,200,2011-10-25 16:53:00
12:53 PM,81.0,60.1,49,30.06,10.0,South,11.5,-,N/A,,Partly Cloudy,180,2011-10-25 17:53:00
1:53 PM,82.9,57.0,41,30.03,10.0,South,17.3,24.2,N/A,,Partly Cloudy,170,2011-10-25 18:53:00
2:53 PM,82.9,59.0,44,29.99,10.0,South,9.2,23.0,N/A,,Partly Cloudy,170,2011-10-25 19:53:00
3:53 PM,84.9,55.9,37,29.96,10.0,South,13.8,19.6,N/A,,Partly Cloudy,180,2011-10-25 20:53:00
4:53 PM,84.0,55.9,38,29.95,10.0,South,13.8,-,N/A,,Partly Cloudy,170,2011-10-25 21:53:00
5:53 PM,82.9,55.0,38,29.94,10.0,SSE,10.4,-,N/A,,Clear,160,2011-10-25 22:53:00
6:53 PM,80.1,55.0,42,29.94,10.0,SSE,11.5,-,N/A,,Clear,150,2011-10-25 23:53:00
7:53 PM,75.2,55.4,50,29.99,10.0,SSE,8.1,-,N/A,,Clear,150,2011-10-26 00:53:00
8:53 PM,75.0,55.9,51,29.96,10.0,SSE,8.1,-,N/A,,Clear,160,2011-10-26 01:53:00
9:53 PM,75.0,57.0,53,29.96,10.0,SSE,12.7,-,N/A,,Clear,150,2011-10-26 02:53:00
10:53 PM,73.4,59.0,61,30.01,10.0,SSE,10.4,-,N/A,,Clear,160,2011-10-26 03:53:00
11:53 PM,71.1,62.1,73,29.96,10.0,SSE,10.4,-,N/A,,Clear,160,2011-10-26 04:53:00